Center Tuftonboro, New Hampshire
Current Conditions -  °F | °C
As of 4:15 PM on Tuesday 27 Jan 2015 (Local Time) from KLCI Reporting Station
Overcast Overcast  
Wind Chill:   Ceiling: 2000
Heat Index: 18°   Visibility: 2.5mi
Dew Point: 10°   Wind: 13mph
Humidity: 73%   Direction: 310°NW
Pressure: 29.56"   Gusts: 16mph
Location:  43.65°N, 71.25°W
Report Text: KLCI 272115Z AUTO 31011G14KT 2 1/2SM BKN020 OVC026 M08/M12 A2956 RMK AO1
Loading
Personal Weather Stations






























Interactive Weather Map New forecast layout! Learn more

10-Day Weather Forecast

Advertisements
Track Severe Weather on mobile